createdAt,value
2019-05-16T00:00:10.368Z,99468.37
2019-05-16T00:02:38.797Z,99467.16
2019-05-16T00:05:08.649Z,99467.56
2019-05-16T00:07:38.956Z,99463.12
2019-05-16T00:10:08.351Z,99463.66
2019-05-16T00:12:39.653Z,99454.54
2019-05-16T00:15:08.967Z,99463.59
2019-05-16T00:17:38.558Z,99458.44
2019-05-16T00:20:09.310Z,99457.30
2019-05-16T00:22:39.460Z,99457.27
2019-05-16T00:25:08.826Z,99455.66
2019-05-16T00:27:38.721Z,99444.39
2019-05-16T00:30:08.943Z,99442.47
2019-05-16T00:32:39.095Z,99442.05
2019-05-16T00:35:09.323Z,99439.02
2019-05-16T00:37:39.217Z,99446.42
2019-05-16T00:40:08.584Z,99436.80
2019-05-16T00:42:38.999Z,99441.06
2019-05-16T00:45:09.349Z,99436.30
2019-05-16T00:47:39.054Z,99429.87
2019-05-16T00:50:08.932Z,99430.42
2019-05-16T00:52:39.404Z,99426.04
2019-05-16T00:55:08.501Z,99424.33
2019-05-16T00:57:39.007Z,99425.80
2019-05-16T01:00:09.245Z,99419.64
2019-05-16T01:02:38.288Z,99416.20
2019-05-16T01:05:08.502Z,99417.05
2019-05-16T01:07:39.132Z,99411.17
2019-05-16T01:10:08.963Z,99407.78
2019-05-16T01:12:39.034Z,99407.04
2019-05-16T01:15:08.179Z,99411.78
2019-05-16T01:17:38.787Z,99410.43
2019-05-16T01:20:08.612Z,99401.38
2019-05-16T01:22:38.499Z,99396.98
2019-05-16T01:25:09.337Z,99395.50
2019-05-16T01:27:38.584Z,99393.29
2019-05-16T01:30:09.303Z,99394.91
2019-05-16T01:32:39.302Z,99397.96
2019-05-16T01:35:08.446Z,99387.56
2019-05-16T01:37:38.361Z,99389.38
2019-05-16T01:40:08.381Z,99386.72
2019-05-16T01:42:38.584Z,99380.52
2019-05-16T01:45:08.406Z,99380.56
2019-05-16T01:47:39.044Z,99373.91
2019-05-16T01:50:08.674Z,99369.59
2019-05-16T01:52:38.318Z,99370.39
2019-05-16T01:55:08.264Z,99370.48
2019-05-16T01:57:39.020Z,99367.53
2019-05-16T02:00:08.433Z,99365.80
2019-05-16T02:02:38.575Z,99365.41
2019-05-16T02:05:08.413Z,99365.44
2019-05-16T02:07:38.713Z,99366.59
2019-05-16T02:10:08.549Z,99360.55
2019-05-16T02:12:38.472Z,99361.34
2019-05-16T02:15:08.564Z,99347.09
2019-05-16T02:17:38.499Z,99351.34
2019-05-16T02:20:08.699Z,99352.38
2019-05-16T02:22:38.937Z,99353.91
2019-05-16T02:25:08.947Z,99349.23
2019-05-16T02:27:38.211Z,99345.33
2019-05-16T02:30:11.959Z,99344.89
2019-05-16T02:32:41.373Z,99346.48
2019-05-16T02:35:11.858Z,99337.09
2019-05-16T02:37:42.126Z,99336.66
2019-05-16T02:40:12.036Z,99332.19
2019-05-16T02:42:41.946Z,99335.73
2019-05-16T02:45:11.351Z,99336.16
2019-05-16T02:47:42.367Z,99336.91
2019-05-16T02:50:12.261Z,99335.24
2019-05-16T02:52:41.378Z,99336.45
2019-05-16T02:55:11.730Z,99333.84
2019-05-16T02:57:41.524Z,99326.17
2019-05-16T03:00:12.465Z,99321.61
2019-05-16T03:02:41.953Z,99329.92
2019-05-16T03:05:12.262Z,99317.78
2019-05-16T03:07:47.372Z,99317.89
2019-05-16T03:10:13.875Z,99309.58
2019-05-16T03:12:43.869Z,99312.63
2019-05-16T03:15:12.763Z,99306.84
2019-05-16T03:17:44.250Z,99299.53
2019-05-16T03:20:13.862Z,99301.56
2019-05-16T03:22:42.807Z,99297.27
2019-05-16T03:25:11.853Z,99301.16
2019-05-16T03:27:41.520Z,99304.05
2019-05-16T03:30:15.877Z,99297.45
2019-05-16T03:32:44.671Z,99299.61
2019-05-16T03:35:15.762Z,99300.98
2019-05-16T03:37:54.519Z,99298.83
2019-05-16T03:40:16.029Z,99297.08
2019-05-16T03:42:44.458Z,99295.48
2019-05-16T03:45:13.116Z,99292.05
2019-05-16T03:47:42.824Z,99295.48
2019-05-16T03:50:11.674Z,99288.89
2019-05-16T03:52:43.305Z,99293.78
2019-05-16T03:55:11.397Z,99287.73
2019-05-16T03:57:41.541Z,99294.94
2019-05-16T04:00:11.707Z,99288.30
2019-05-16T04:02:42.000Z,99284.47
2019-05-16T04:05:11.552Z,99283.20
2019-05-16T04:07:41.698Z,99285.02
2019-05-16T04:10:11.266Z,99283.52
2019-05-16T04:12:41.894Z,99280.38
2019-05-16T04:15:11.245Z,99276.92
2019-05-16T04:17:41.230Z,99270.48
2019-05-16T04:20:11.678Z,99272.37
2019-05-16T04:22:41.008Z,99275.02
2019-05-16T04:25:11.412Z,99272.86
2019-05-16T04:27:41.681Z,99274.41
2019-05-16T04:30:11.720Z,99273.52
2019-05-16T04:32:41.913Z,99281.33
2019-05-16T04:35:11.369Z,99278.67
2019-05-16T04:37:42.146Z,99277.34
2019-05-16T04:40:11.922Z,99279.41
2019-05-16T04:42:41.644Z,99276.56
2019-05-16T04:45:11.845Z,99280.92
2019-05-16T04:47:41.589Z,99281.08
2019-05-16T04:50:11.547Z,99277.95
2019-05-16T04:52:41.833Z,99271.81
2019-05-16T04:55:11.981Z,99270.88
2019-05-16T04:57:42.134Z,99265.88
2019-05-16T05:00:11.927Z,99269.59
2019-05-16T05:02:41.931Z,99266.46
2019-05-16T05:05:12.680Z,99263.83
2019-05-16T05:07:41.372Z,99262.57
2019-05-16T05:10:11.250Z,99262.95
2019-05-16T05:12:40.874Z,99260.45
2019-05-16T05:15:11.775Z,99265.29
2019-05-16T05:17:41.225Z,99259.59
2019-05-16T05:20:10.877Z,99255.02
2019-05-16T05:22:39.894Z,99250.80
2019-05-16T05:25:10.990Z,99249.53
2019-05-16T05:27:41.271Z,99252.61
2019-05-16T05:30:10.819Z,99251.11
2019-05-16T05:32:41.379Z,99259.31
2019-05-16T05:35:10.743Z,99259.00
2019-05-16T05:37:41.053Z,99253.35
2019-05-16T05:40:10.737Z,99254.95
2019-05-16T05:42:40.050Z,99250.39
2019-05-16T05:45:11.052Z,99250.27
2019-05-16T05:47:40.189Z,99247.73
2019-05-16T05:50:11.159Z,99247.75
2019-05-16T05:52:41.205Z,99247.36
2019-05-16T05:55:10.546Z,99251.86
2019-05-16T05:57:40.330Z,99253.59
2019-05-16T06:00:10.116Z,99249.91
2019-05-16T06:02:40.288Z,99239.94
2019-05-16T06:05:10.722Z,99245.87
2019-05-16T06:07:40.553Z,99244.23
2019-05-16T06:10:10.561Z,99241.33
2019-05-16T06:12:40.828Z,99245.59
2019-05-16T06:15:12.624Z,99247.21
2019-05-16T06:17:40.213Z,99240.53
2019-05-16T06:20:14.325Z,99240.94
2019-05-16T06:22:40.296Z,99243.68
2019-05-16T06:25:13.291Z,99240.59
2019-05-16T06:27:40.784Z,99247.16
2019-05-16T06:30:11.574Z,99237.64
2019-05-16T06:32:40.123Z,99233.87
2019-05-16T06:35:09.734Z,99239.78
2019-05-16T06:37:40.693Z,99235.98
2019-05-16T06:40:10.946Z,99231.80
2019-05-16T06:42:40.260Z,99237.53
2019-05-16T06:45:10.308Z,99238.10
2019-05-16T06:47:39.733Z,99236.50
2019-05-16T06:50:11.105Z,99227.94
2019-05-16T06:52:40.927Z,99228.88
2019-05-16T06:55:11.780Z,99226.95
2019-05-16T06:57:43.081Z,99222.88
2019-05-16T07:00:13.055Z,99221.98
2019-05-16T07:02:41.466Z,99227.58
2019-05-16T07:05:10.379Z,99227.58
2019-05-16T07:07:40.494Z,99229.78
2019-05-16T07:10:09.924Z,99224.95
2019-05-16T07:12:41.072Z,99216.34
2019-05-16T07:15:12.325Z,99208.46
2019-05-16T07:17:39.994Z,99195.84
2019-05-16T07:20:10.411Z,99204.26
2019-05-16T07:22:40.696Z,99206.11
2019-05-16T07:25:10.583Z,99204.86
2019-05-16T07:27:40.071Z,99197.76
2019-05-16T07:30:10.756Z,99196.59
2019-05-16T07:32:40.477Z,99188.53
2019-05-16T07:35:10.007Z,99188.88
2019-05-16T07:37:40.029Z,99184.75
2019-05-16T07:40:19.349Z,99188.09
2019-05-16T07:42:40.358Z,99183.92
2019-05-16T07:45:10.569Z,99182.75
2019-05-16T07:47:40.345Z,99180.14
2019-05-16T07:50:10.468Z,99179.52
2019-05-16T07:52:40.230Z,99175.88
2019-05-16T07:55:10.780Z,99163.63
2019-05-16T07:57:39.908Z,99165.34
2019-05-16T08:00:10.211Z,99159.21
2019-05-16T08:02:40.286Z,99159.23
2019-05-16T08:05:10.222Z,99162.48
2019-05-16T08:07:40.741Z,99158.91
2019-05-16T08:10:11.078Z,99155.27
2019-05-16T08:12:40.771Z,99156.15
2019-05-16T08:15:10.952Z,99151.61
2019-05-16T08:17:44.216Z,99155.81
2019-05-16T08:22:41.651Z,99156.96
2019-05-16T08:25:11.190Z,99151.80
2019-05-16T08:33:21.384Z,99133.88
2019-05-16T08:35:11.286Z,99131.70
2019-05-16T08:37:46.080Z,99127.77
2019-05-16T08:40:11.451Z,99119.67
2019-05-16T08:42:41.558Z,99124.23
2019-05-16T08:45:12.686Z,99120.59
2019-05-16T08:50:06.253Z,99114.41
2019-05-16T08:50:10.011Z,99139.23
2019-05-16T08:50:10.957Z,99155.47
2019-05-16T08:50:14.465Z,99114.84
2019-05-16T08:52:43.537Z,99117.28
2019-05-16T08:55:13.455Z,99123.52
2019-05-16T08:57:42.146Z,99118.91
2019-05-16T09:00:14.650Z,99117.91
2019-05-16T09:05:13.498Z,99107.95
2019-05-16T09:07:41.799Z,99108.39
2019-05-16T09:10:25.133Z,99109.61
2019-05-16T09:10:31.318Z,99143.38
2019-05-16T09:10:45.728Z,99100.13
2019-05-16T09:12:40.896Z,99108.42
2019-05-16T09:15:09.662Z,99102.38
2019-05-16T09:17:38.600Z,99092.50
2019-05-16T09:20:07.883Z,99089.88
2019-05-16T09:22:37.756Z,99098.34
2019-05-16T09:25:08.028Z,99088.11
2019-05-16T09:27:38.131Z,99073.11
2019-05-16T09:30:07.797Z,99082.42
2019-05-16T09:32:37.081Z,99076.66
2019-05-16T09:35:09.667Z,99069.45
2019-05-16T09:37:38.067Z,99080.41
2019-05-16T09:40:08.206Z,99072.50
2019-05-16T09:42:37.347Z,99077.84
2019-05-16T09:45:07.697Z,99065.30
2019-05-16T09:47:39.027Z,99066.20
2019-05-16T09:50:08.617Z,99059.66
2019-05-16T09:52:37.186Z,99059.25
2019-05-16T09:55:07.342Z,99056.86
2019-05-16T09:57:37.599Z,99052.48
2019-05-16T10:00:09.058Z,99054.97
2019-05-16T10:02:37.563Z,99045.41
2019-05-16T10:05:13.359Z,99038.91
2019-05-16T10:07:38.828Z,99040.48
2019-05-16T10:10:08.255Z,99043.47
2019-05-16T10:12:37.169Z,99042.22
2019-05-16T10:15:07.550Z,99039.51
2019-05-16T10:17:36.996Z,99032.90
2019-05-16T10:20:08.129Z,99031.55
2019-05-16T10:22:37.357Z,99022.89
2019-05-16T10:25:06.749Z,99017.86
2019-05-16T10:27:36.790Z,99017.13
2019-05-16T10:30:08.932Z,99013.39
2019-05-16T10:32:39.872Z,99005.75
2019-05-16T10:35:09.084Z,99009.80
2019-05-16T10:37:37.707Z,98996.05
2019-05-16T10:40:07.430Z,98996.67
2019-05-16T10:42:37.972Z,98989.48
2019-05-16T10:45:09.029Z,98984.58
2019-05-16T10:47:37.379Z,98973.62
2019-05-16T10:50:07.479Z,98973.62
2019-05-16T10:52:36.696Z,98987.60
2019-05-16T10:55:08.279Z,98979.80
2019-05-16T10:57:37.837Z,98967.14
2019-05-16T11:00:21.483Z,98970.50
2019-05-16T11:02:39.362Z,98968.28
2019-05-16T11:05:25.117Z,98962.34
2019-05-16T11:07:38.123Z,98958.31
2019-05-16T11:10:07.698Z,98953.83
2019-05-16T11:12:47.687Z,98957.38
2019-05-16T11:15:11.254Z,98943.38
2019-05-16T11:17:40.203Z,98954.50
2019-05-16T11:20:09.109Z,98951.97
2019-05-16T11:22:37.488Z,98949.69
2019-05-16T11:25:20.809Z,98953.73
2019-05-16T11:27:37.640Z,98956.70
2019-05-16T11:30:07.759Z,98945.84
2019-05-16T11:32:37.506Z,98952.42
2019-05-16T11:35:09.685Z,98953.86
2019-05-16T11:37:38.102Z,98943.11
2019-05-16T11:40:08.441Z,98944.33
2019-05-16T11:42:38.026Z,98941.97
2019-05-16T11:45:10.374Z,98933.16
2019-05-16T11:47:39.352Z,98933.37
2019-05-16T11:50:09.201Z,98931.14
2019-05-16T11:52:40.662Z,98938.91
2019-05-16T11:55:08.655Z,98940.29
2019-05-16T11:57:37.905Z,98934.70
2019-05-16T12:00:09.347Z,98931.38
2019-05-16T12:02:42.244Z,98924.05
2019-05-16T12:05:08.422Z,98932.24
2019-05-16T12:07:43.826Z,98918.27
2019-05-16T12:10:08.521Z,98913.50
2019-05-16T12:12:37.187Z,98907.48
2019-05-16T12:15:07.875Z,98915.86
2019-05-16T12:17:36.463Z,98895.92
2019-05-16T12:20:07.763Z,98897.71
2019-05-16T12:22:37.659Z,98897.62
2019-05-16T12:25:08.128Z,98896.22
2019-05-16T12:27:42.233Z,98906.46
2019-05-16T12:30:13.816Z,98891.23
2019-05-16T12:32:38.623Z,98891.20
2019-05-16T12:35:07.456Z,98891.78
2019-05-16T12:37:37.299Z,98892.69
2019-05-16T12:40:09.116Z,98882.64
2019-05-16T12:42:37.600Z,98885.40
2019-05-16T12:45:09.366Z,98878.08
2019-05-16T12:47:37.887Z,98873.36
2019-05-16T12:50:08.705Z,98881.22
2019-05-16T12:52:38.314Z,98873.64
2019-05-16T12:55:10.334Z,98873.45
2019-05-16T12:57:38.732Z,98872.41
2019-05-16T13:00:15.032Z,98863.87
2019-05-16T13:02:40.705Z,98865.69
2019-05-16T13:05:09.502Z,98864.83
2019-05-16T13:07:37.934Z,98858.79
2019-05-16T13:10:08.303Z,98848.48
2019-05-16T13:12:37.941Z,98841.41
2019-05-16T13:15:08.665Z,98836.91
2019-05-16T13:17:37.561Z,98836.50
2019-05-16T13:20:08.105Z,98832.95
2019-05-16T13:22:38.502Z,98826.23
2019-05-16T13:25:07.781Z,98838.17
2019-05-16T13:27:37.279Z,98833.17
2019-05-16T13:30:12.025Z,98833.13
2019-05-16T13:32:40.516Z,98839.20
2019-05-16T13:35:09.162Z,98851.88
2019-05-16T13:37:37.607Z,98826.78
2019-05-16T13:40:10.089Z,98838.16
2019-05-16T13:42:38.541Z,98833.67
2019-05-16T13:45:08.060Z,98832.34
2019-05-16T13:47:37.696Z,98835.47
2019-05-16T13:50:12.169Z,98835.48
2019-05-16T13:52:38.526Z,98839.44
2019-05-16T13:55:08.018Z,98834.77
2019-05-16T13:57:37.320Z,98826.16
2019-05-16T14:00:09.020Z,98820.70
2019-05-16T14:02:38.402Z,98823.02
2019-05-16T14:05:08.708Z,98823.31
2019-05-16T14:07:37.806Z,98822.91
2019-05-16T14:10:08.679Z,98820.30
2019-05-16T14:12:37.101Z,98821.72
2019-05-16T14:15:09.276Z,98823.24
2019-05-16T14:17:37.783Z,98813.72
2019-05-16T14:20:14.527Z,98805.73
2019-05-16T14:22:38.150Z,98810.91
2019-05-16T14:25:07.342Z,98808.31
2019-05-16T14:27:38.233Z,98812.38
2019-05-16T14:30:08.579Z,98816.20
2019-05-16T14:32:42.007Z,98816.20
2019-05-16T14:35:08.677Z,98816.91
2019-05-16T14:37:38.057Z,98819.20
2019-05-16T14:40:07.403Z,98808.16
2019-05-16T14:42:38.761Z,98810.52
2019-05-16T14:45:16.990Z,98809.67
2019-05-16T14:47:47.511Z,98806.14
2019-05-16T14:50:17.037Z,98807.83
2019-05-16T14:52:47.312Z,98799.76
2019-05-16T14:55:18.564Z,98806.95
2019-05-16T14:57:47.495Z,98805.18
2019-05-16T15:00:18.365Z,98807.14
2019-05-16T15:02:48.251Z,98798.45
2019-05-16T15:05:18.198Z,98804.39
2019-05-16T15:07:48.351Z,98803.21
2019-05-16T15:10:17.170Z,98804.67
2019-05-16T15:12:46.783Z,98804.36
2019-05-16T15:15:24.193Z,98795.16
2019-05-16T15:20:23.267Z,98793.70
2019-05-16T15:22:51.848Z,98783.63
2019-05-16T15:25:20.322Z,98780.47
2019-05-16T15:27:50.661Z,98773.81
2019-05-16T15:30:20.365Z,98774.11
2019-05-16T15:32:51.092Z,98779.78
2019-05-16T15:35:21.964Z,98771.39
2019-05-16T15:37:50.569Z,98778.08
2019-05-16T15:40:19.217Z,98774.89
2019-05-16T15:42:47.664Z,98772.33
2019-05-16T15:45:19.289Z,98768.64
2019-05-16T15:47:47.269Z,98759.57
2019-05-16T15:50:18.213Z,98757.30
2019-05-16T15:52:47.348Z,98757.95
2019-05-16T15:55:17.907Z,98751.45
2019-05-16T15:57:47.549Z,98750.64
2019-05-16T16:00:18.484Z,98753.02
2019-05-16T16:02:48.265Z,98750.45
2019-05-16T16:05:17.679Z,98737.97
2019-05-16T16:07:48.252Z,98738.41
2019-05-16T16:10:19.774Z,98732.95
2019-05-16T16:12:50.436Z,98735.19
2019-05-16T16:15:19.015Z,98726.28
2019-05-16T16:17:47.455Z,98724.53
2019-05-16T16:20:17.050Z,98724.53
2019-05-16T16:22:47.002Z,98727.73
2019-05-16T16:25:17.526Z,98722.80
2019-05-16T16:27:45.928Z,98723.89
2019-05-16T16:30:14.487Z,98721.46
2019-05-16T16:32:42.904Z,98718.76
2019-05-16T16:35:14.039Z,98709.70
2019-05-16T16:37:41.585Z,98706.47
2019-05-16T16:40:12.058Z,98714.61
2019-05-16T16:42:40.437Z,98709.19
2019-05-16T16:45:09.455Z,98708.16
2019-05-16T16:47:38.142Z,98715.11
2019-05-16T16:50:08.115Z,98706.63
2019-05-16T16:52:37.814Z,98711.48
2019-05-16T16:55:07.933Z,98707.20
2019-05-16T16:57:38.463Z,98699.30
2019-05-16T17:00:09.162Z,98697.87
2019-05-16T17:02:37.822Z,98702.34
2019-05-16T17:05:11.278Z,98702.86
2019-05-16T17:07:38.090Z,98698.58
2019-05-16T17:10:07.950Z,98700.72
2019-05-16T17:12:41.553Z,98693.98
2019-05-16T17:15:09.166Z,98694.21
2019-05-16T17:17:37.943Z,98687.22
2019-05-16T17:20:08.774Z,98687.72
2019-05-16T17:22:37.980Z,98688.30
2019-05-16T17:25:09.358Z,98681.13
2019-05-16T17:27:37.981Z,98683.95
2019-05-16T17:30:20.616Z,98673.92
2019-05-16T17:32:49.109Z,98673.92
2019-05-16T17:35:19.249Z,98667.70
2019-05-16T17:37:48.994Z,98669.01
2019-05-16T17:40:18.393Z,98663.52
2019-05-16T17:42:47.944Z,98658.94
2019-05-16T17:45:17.989Z,98656.39
2019-05-16T17:47:47.005Z,98656.80
2019-05-16T17:50:17.558Z,98652.31
2019-05-16T17:52:47.659Z,98650.56
2019-05-16T17:55:18.227Z,98651.06
2019-05-16T17:57:47.981Z,98644.20
2019-05-16T18:00:25.328Z,98644.65
2019-05-16T18:02:47.644Z,98657.64
2019-05-16T18:05:17.149Z,98655.03
2019-05-16T18:07:47.416Z,98657.27
2019-05-16T18:10:17.899Z,98647.22
2019-05-16T18:12:48.003Z,98654.48
2019-05-16T18:15:19.714Z,98654.75
2019-05-16T18:17:49.070Z,98648.39
2019-05-16T18:20:18.977Z,98651.14
2019-05-16T18:22:48.968Z,98644.00
2019-05-16T18:25:17.573Z,98648.12
2019-05-16T18:27:46.119Z,98650.88
2019-05-16T18:30:16.885Z,98641.95
2019-05-16T18:32:45.255Z,98642.77
2019-05-16T18:35:16.551Z,98647.16
2019-05-16T18:37:46.290Z,98640.59
2019-05-16T18:40:16.562Z,98646.56
2019-05-16T18:42:47.731Z,98639.49
2019-05-16T18:45:16.645Z,98645.60
2019-05-16T18:47:46.943Z,98638.94
2019-05-16T18:50:18.089Z,98646.48
2019-05-16T18:52:47.039Z,98641.00
2019-05-16T18:55:16.876Z,98642.73
2019-05-16T18:57:47.295Z,98635.28
2019-05-16T19:00:17.798Z,98632.67
2019-05-16T19:02:47.882Z,98636.52
2019-05-16T19:05:17.291Z,98633.05
2019-05-16T19:07:47.529Z,98632.39
2019-05-16T19:10:17.648Z,98627.04
2019-05-16T19:12:47.763Z,98628.42
2019-05-16T19:15:17.730Z,98627.33
2019-05-16T19:17:46.468Z,98627.61
2019-05-16T19:20:17.129Z,98626.08
2019-05-16T19:22:45.741Z,98623.96
2019-05-16T19:25:14.589Z,98628.10
2019-05-16T19:27:43.065Z,98623.45
2019-05-16T19:32:39.087Z,98618.50
2019-05-16T19:35:10.571Z,98616.83
2019-05-16T19:37:40.759Z,98614.28
2019-05-16T19:40:09.870Z,98617.20
2019-05-16T19:42:38.285Z,98616.39
2019-05-16T19:45:07.816Z,98618.32
2019-05-16T19:47:40.827Z,98624.79
2019-05-16T19:50:07.689Z,98628.48
2019-05-16T19:52:36.836Z,98625.46
2019-05-16T19:55:07.311Z,98625.46
2019-05-16T19:57:37.412Z,98622.63
2019-05-16T20:00:08.054Z,98622.30
2019-05-16T20:02:36.995Z,98618.11
2019-05-16T20:05:08.030Z,98616.97
2019-05-16T20:07:37.287Z,98618.88
2019-05-16T20:10:10.789Z,98608.70
2019-05-16T20:12:39.464Z,98611.70
2019-05-16T20:15:11.687Z,98614.16
2019-05-16T20:17:50.926Z,98615.31
2019-05-16T20:20:09.840Z,98613.54
2019-05-16T20:22:38.328Z,98616.33
2019-05-16T20:25:07.430Z,98613.30
2019-05-16T20:27:36.860Z,98617.23
2019-05-16T20:30:07.589Z,98613.36
2019-05-16T20:32:37.126Z,98611.72
2019-05-16T20:35:09.209Z,98614.84
2019-05-16T20:37:37.973Z,98609.28
2019-05-16T20:40:09.226Z,98610.67
2019-05-16T20:42:37.968Z,98606.50
2019-05-16T20:45:10.470Z,98598.15
2019-05-16T20:47:39.053Z,98601.84
2019-05-16T20:50:08.696Z,98597.47
2019-05-16T20:52:37.979Z,98603.20
2019-05-16T20:55:07.737Z,98599.16
2019-05-16T20:57:37.691Z,98597.52
2019-05-16T21:00:08.145Z,98595.02
2019-05-16T21:02:38.034Z,98593.45
2019-05-16T21:05:08.011Z,98593.00
2019-05-16T21:07:37.474Z,98591.45
2019-05-16T21:10:08.300Z,98589.91
2019-05-16T21:12:40.244Z,98588.97
2019-05-16T21:15:08.544Z,98589.53
2019-05-16T21:17:37.666Z,98591.20
2019-05-16T21:20:07.598Z,98592.16
2019-05-16T21:22:37.059Z,98586.41
2019-05-16T21:25:06.169Z,98580.59
2019-05-16T21:27:37.547Z,98587.55
2019-05-16T21:30:07.526Z,98574.50
2019-05-16T21:32:36.675Z,98578.48
2019-05-16T21:35:07.435Z,98571.72
2019-05-16T21:37:37.439Z,98569.34
2019-05-16T21:40:08.066Z,98563.64
2019-05-16T21:42:36.792Z,98560.28
2019-05-16T21:45:09.222Z,98556.53
2019-05-16T21:47:37.755Z,98555.97
2019-05-16T21:50:11.349Z,98553.08
2019-05-16T21:52:39.814Z,98557.10
2019-05-16T21:55:09.370Z,98546.92
2019-05-16T21:57:38.045Z,98547.86
2019-05-16T22:00:14.126Z,98541.83
2019-05-16T22:02:42.593Z,98539.45
2019-05-16T22:05:11.309Z,98544.50
2019-05-16T22:07:39.743Z,98538.64
2019-05-16T22:10:08.319Z,98539.55
2019-05-16T22:12:38.375Z,98533.08
2019-05-16T22:15:07.410Z,98530.87
2019-05-16T22:17:36.612Z,98534.75
2019-05-16T22:20:07.114Z,98525.30
2019-05-16T22:22:37.904Z,98524.84
2019-05-16T22:25:07.641Z,98526.30
2019-05-16T22:27:36.265Z,98517.08
2019-05-16T22:30:07.797Z,98516.30
2019-05-16T22:32:36.385Z,98520.22
2019-05-16T22:35:07.890Z,98517.84
2019-05-16T22:37:49.442Z,98511.00
2019-05-16T22:40:07.819Z,98513.80
2019-05-16T22:42:37.525Z,98515.13
2019-05-16T22:45:08.988Z,98512.08
2019-05-16T22:47:38.175Z,98507.84
2019-05-16T22:50:08.405Z,98506.91
2019-05-16T22:52:36.950Z,98505.56
2019-05-16T22:55:07.406Z,98500.73
2019-05-16T22:57:35.976Z,98505.43
2019-05-16T23:00:09.446Z,98500.39
2019-05-16T23:02:38.355Z,98498.63
2019-05-16T23:05:07.334Z,98497.77
2019-05-16T23:07:36.694Z,98494.34
2019-05-16T23:10:07.289Z,98494.30
2019-05-16T23:12:37.142Z,98489.86
2019-05-16T23:15:06.624Z,98492.97
2019-05-16T23:17:37.307Z,98484.09
2019-05-16T23:20:07.157Z,98485.86
2019-05-16T23:22:36.755Z,98478.83
2019-05-16T23:25:06.731Z,98486.13
2019-05-16T23:27:36.823Z,98479.13
2019-05-16T23:30:08.392Z,98476.02
2019-05-16T23:32:36.796Z,98478.14
2019-05-16T23:35:07.946Z,98473.09
2019-05-16T23:37:37.024Z,98468.02
2019-05-16T23:40:06.423Z,98468.47
2019-05-16T23:42:36.899Z,98461.02
2019-05-16T23:45:08.983Z,98457.96
2019-05-16T23:47:37.555Z,98447.28
2019-05-16T23:50:07.921Z,98444.13
2019-05-16T23:52:36.892Z,98446.71
2019-05-16T23:55:08.151Z,98443.56
2019-05-16T23:57:37.522Z,98443.56
